Time;durP1;ratioP1;P1;durP2;ratioP2;P2;SDS_P1;SDS_P2;PMS_P1;PMS_P2;Temp;Humidity;BMP_temperature;BMP_pressure;BME280_temperature;BME280_humidity;BME280_pressure;Samples;Min_cycle;Max_cycle;Signal;HPM_P1;HPM_P2
2021/06/08 00:02:07;;;;;;;25.75;20.88;;;16.10;99.90;;;;;;5093812;28;20204;-71
2021/06/08 00:04:35;;;;;;;26.92;22.13;;;16.20;99.90;;;;;;5093767;28;20323;-70
2021/06/08 00:07:02;;;;;;;26.50;20.13;;;16.20;99.90;;;;;;5093589;28;20249;-70
2021/06/08 00:09:30;;;;;;;27.05;22.00;;;16.00;99.90;;;;;;5093568;28;20216;-71
2021/06/08 00:11:57;;;;;;;25.50;20.65;;;16.10;99.90;;;;;;5093703;28;20203;-70
2021/06/08 00:14:25;;;;;;;26.58;21.70;;;16.10;99.90;;;;;;5080487;28;20254;-70
2021/06/08 00:16:54;;;;;;;25.30;20.65;;;16.10;99.90;;;;;;5073029;28;20303;-69
2021/06/08 00:19:21;;;;;;;25.02;19.80;;;16.00;99.90;;;;;;5073234;28;20192;-71
2021/06/08 00:21:49;;;;;;;25.23;20.83;;;15.90;99.90;;;;;;5073137;28;20284;-70
2021/06/08 00:24:16;;;;;;;26.27;20.77;;;15.80;99.90;;;;;;5072897;28;20656;-70
2021/06/08 00:26:43;;;;;;;27.00;19.85;;;15.70;99.90;;;;;;5073144;28;20197;-70
2021/06/08 00:29:10;;;;;;;26.38;20.50;;;15.60;99.90;;;;;;5072673;28;20223;-70
2021/06/08 00:31:38;;;;;;;25.50;21.33;;;15.60;99.90;;;;;;5072730;28;20201;-69
2021/06/08 00:34:07;;;;;;;27.65;21.20;;;15.60;99.90;;;;;;5073018;28;20239;-70
2021/06/08 00:36:34;;;;;;;26.38;20.88;;;15.50;99.90;;;;;;5072940;28;20230;-70
2021/06/08 00:39:04;;;;;;;31.63;22.98;;;15.60;99.90;;;;;;5073076;28;20203;-70
2021/06/08 00:41:33;;;;;;;28.63;22.73;;;15.50;99.90;;;;;;5072986;28;20201;-70
2021/06/08 00:44:02;;;;;;;27.42;22.67;;;15.50;99.90;;;;;;5072754;28;20204;-69
2021/06/08 00:46:30;;;;;;;28.45;23.38;;;15.60;99.90;;;;;;5072950;28;20226;-70
2021/06/08 00:48:57;;;;;;;30.20;23.80;;;15.60;99.90;;;;;;5072853;28;20560;-72
2021/06/08 00:51:26;;;;;;;28.77;21.95;;;15.70;99.90;;;;;;5072289;28;20244;-70
2021/06/08 00:53:54;;;;;;;29.60;23.45;;;15.60;99.90;;;;;;5072884;28;20285;-69
2021/06/08 00:56:22;;;;;;;33.88;24.27;;;15.50;99.90;;;;;;5073083;28;20299;-70
2021/06/08 00:58:49;;;;;;;31.65;24.60;;;15.50;99.90;;;;;;5073940;28;20292;-69
2021/06/08 01:01:17;;;;;;;30.90;24.98;;;15.50;99.90;;;;;;5074218;28;20664;-71
2021/06/08 01:03:44;;;;;;;32.45;24.17;;;15.40;99.90;;;;;;5077500;28;20729;-70
2021/06/08 01:06:12;;;;;;;30.90;24.38;;;15.50;99.90;;;;;;5076809;28;20243;-70
2021/06/08 01:08:40;;;;;;;36.03;26.20;;;15.40;99.90;;;;;;5076582;28;20699;-71
2021/06/08 01:11:08;;;;;;;30.70;24.77;;;15.50;99.90;;;;;;5076867;28;20207;-70
2021/06/08 01:13:35;;;;;;;33.45;25.45;;;15.40;99.90;;;;;;5082656;28;20245;-70
2021/06/08 01:16:03;;;;;;;34.10;25.80;;;15.40;99.90;;;;;;5097031;28;20286;-69
2021/06/08 01:18:30;;;;;;;31.88;24.13;;;15.40;99.90;;;;;;5096875;28;20238;-69
2021/06/08 01:21:03;;;;;;;35.55;26.67;;;15.30;99.90;;;;;;5096348;28;20243;-70
2021/06/08 01:23:31;;;;;;;31.85;25.33;;;15.40;99.90;;;;;;5096888;28;20180;-70
2021/06/08 01:25:59;;;;;;;32.95;26.98;;;15.40;99.90;;;;;;5096716;28;20644;-70
2021/06/08 01:28:27;;;;;;;32.22;25.90;;;15.40;99.90;;;;;;5096136;28;20298;-71
2021/06/08 01:30:56;;;;;;;33.40;25.05;;;15.50;99.90;;;;;;5096509;28;20200;-70
2021/06/08 01:33:25;;;;;;;35.47;25.83;;;15.40;99.90;;;;;;5096297;28;20810;-70
2021/06/08 01:35:54;;;;;;;34.22;26.67;;;15.40;99.90;;;;;;5096488;28;20644;-70
2021/06/08 01:38:23;;;;;;;36.53;26.15;;;15.30;99.90;;;;;;5096539;28;20200;-70
2021/06/08 01:40:51;;;;;;;33.28;26.63;;;15.30;99.90;;;;;;5096312;28;20802;-71
2021/06/08 01:43:19;;;;;;;35.97;27.33;;;15.30;99.90;;;;;;5098583;28;20212;-71
2021/06/08 01:45:49;;;;;;;36.30;27.05;;;15.20;99.90;;;;;;5099754;28;20214;-70
2021/06/08 01:48:17;;;;;;;34.90;26.70;;;15.20;99.90;;;;;;5099466;28;20207;-70
2021/06/08 01:50:49;;;;;;;33.55;26.45;;;15.20;99.90;;;;;;5099736;28;20316;-71
2021/06/08 01:53:28;;;;;;;35.65;27.35;;;15.30;99.90;;;;;;5099115;28;20243;-70
2021/06/08 01:56:01;;;;;;;36.22;26.73;;;15.20;99.90;;;;;;5099231;28;20275;-70
2021/06/08 01:58:38;;;;;;;32.80;24.95;;;15.20;99.90;;;;;;5096014;28;20189;-70
2021/06/08 02:01:12;;;;;;;33.13;25.77;;;15.10;99.90;;;;;;5096351;28;20699;-70
2021/06/08 02:03:46;;;;;;;39.15;27.77;;;15.00;99.90;;;;;;5096550;28;20207;-70
2021/06/08 02:06:18;;;;;;;37.15;27.75;;;15.00;99.90;;;;;;5097868;28;20188;-70
2021/06/08 02:08:54;;;;;;;35.88;27.23;;;15.10;99.90;;;;;;5097094;28;20184;-70
2021/06/08 02:11:28;;;;;;;35.08;26.30;;;15.20;99.90;;;;;;5096549;28;20888;-70
2021/06/08 02:14:02;;;;;;;36.47;26.88;;;15.20;99.90;;;;;;5086838;28;20242;-71
2021/06/08 02:16:34;;;;;;;35.85;25.70;;;15.20;99.90;;;;;;5077157;28;20181;-70
2021/06/08 02:19:03;;;;;;;34.80;26.60;;;15.20;99.90;;;;;;5076028;28;20185;-70
2021/06/08 02:21:35;;;;;;;37.58;26.98;;;15.10;99.90;;;;;;5075407;28;20288;-70
2021/06/08 02:24:06;;;;;;;33.92;25.13;;;15.20;99.90;;;;;;5075608;28;20185;-70
2021/06/08 02:26:38;;;;;;;36.53;25.92;;;15.10;99.90;;;;;;5075228;28;20617;-69
2021/06/08 02:29:06;;;;;;;35.40;25.50;;;15.10;99.90;;;;;;5075288;28;20291;-70
2021/06/08 02:31:35;;;;;;;34.42;26.17;;;15.00;99.90;;;;;;5075410;28;20206;-69
2021/06/08 02:34:04;;;;;;;35.97;25.85;;;15.00;99.90;;;;;;5075017;28;20654;-71
2021/06/08 02:36:31;;;;;;;34.00;25.35;;;15.00;99.90;;;;;;5075030;28;20304;-69
2021/06/08 02:39:00;;;;;;;32.83;25.15;;;15.10;99.90;;;;;;5075220;28;20304;-70
2021/06/08 02:41:29;;;;;;;33.90;24.52;;;15.10;99.90;;;;;;5074840;28;20211;-69
2021/06/08 02:43:57;;;;;;;34.42;25.42;;;15.20;99.90;;;;;;5074736;28;20247;-69
2021/06/08 02:46:25;;;;;;;35.80;25.73;;;15.10;99.90;;;;;;5075001;28;20204;-70
2021/06/08 02:48:54;;;;;;;37.28;26.58;;;15.00;99.90;;;;;;5074941;28;20200;-71
2021/06/08 02:51:22;;;;;;;37.88;26.15;;;14.90;99.90;;;;;;5074554;28;20283;-70
2021/06/08 02:53:52;;;;;;;38.28;26.98;;;14.90;99.90;;;;;;5074495;28;20613;-69
2021/06/08 02:56:20;;;;;;;36.72;27.63;;;15.00;99.90;;;;;;5074467;28;20204;-70
2021/06/08 02:58:49;;;;;;;35.10;27.25;;;15.10;99.90;;;;;;5074562;28;20208;-70
2021/06/08 03:01:19;;;;;;;36.80;26.98;;;15.10;99.90;;;;;;5074698;28;20189;-69
2021/06/08 03:03:50;;;;;;;34.85;25.90;;;15.20;99.90;;;;;;5074466;28;20231;-70
2021/06/08 03:06:21;;;;;;;36.58;27.05;;;15.10;99.90;;;;;;5074324;28;20225;-69
2021/06/08 03:08:54;;;;;;;37.63;27.33;;;15.00;99.90;;;;;;5074701;28;20220;-69
2021/06/08 03:11:24;;;;;;;37.97;27.25;;;15.10;99.90;;;;;;5074215;28;20181;-70
2021/06/08 03:13:55;;;;;;;34.90;25.67;;;15.30;99.90;;;;;;5082678;28;20242;-70
2021/06/08 03:16:25;;;;;;;33.75;27.17;;;15.40;99.90;;;;;;5094610;28;20303;-60
2021/06/08 03:18:55;;;;;;;35.13;26.63;;;15.50;99.90;;;;;;5094343;28;20717;-59
2021/06/08 03:21:30;;;;;;;35.42;27.05;;;15.40;99.90;;;;;;5094320;28;20200;-60
2021/06/08 03:24:00;;;;;;;35.25;26.65;;;15.40;99.90;;;;;;5094583;28;20202;-59
2021/06/08 03:26:29;;;;;;;36.42;27.48;;;15.40;99.90;;;;;;5094720;28;20199;-60
2021/06/08 03:29:00;;;;;;;37.83;27.17;;;15.40;99.90;;;;;;5094370;28;20197;-60
2021/06/08 03:31:28;;;;;;;32.63;25.17;;;15.60;99.90;;;;;;5093987;28;20188;-60
2021/06/08 03:33:56;;;;;;;32.15;24.92;;;15.60;99.90;;;;;;5094197;28;20204;-60
2021/06/08 03:36:26;;;;;;;31.60;25.55;;;15.70;99.90;;;;;;5093723;28;20200;-60
2021/06/08 03:38:54;;;;;;;33.78;25.70;;;15.90;99.90;;;;;;5094164;28;20204;-59
2021/06/08 03:41:23;;;;;;;33.50;24.85;;;15.90;99.90;;;;;;5093511;28;20257;-60
2021/06/08 03:43:51;;;;;;;34.00;24.98;;;15.90;99.90;;;;;;5093870;28;20204;-60
2021/06/08 03:46:22;;;;;;;31.48;25.55;;;15.80;99.90;;;;;;5093972;28;20200;-61
2021/06/08 03:48:51;;;;;;;30.58;24.75;;;15.90;99.90;;;;;;5094059;28;20188;-60
2021/06/08 03:51:21;;;;;;;32.83;25.27;;;15.80;99.90;;;;;;5093496;28;20232;-61
2021/06/08 03:53:48;;;;;;;31.23;24.23;;;15.90;99.90;;;;;;5094015;28;20219;-60
2021/06/08 03:56:17;;;;;;;31.98;23.80;;;16.10;99.90;;;;;;5093920;28;20231;-59
2021/06/08 03:58:44;;;;;;;31.60;23.63;;;16.20;99.90;;;;;;5093638;28;20199;-60
2021/06/08 04:01:12;;;;;;;33.08;25.25;;;16.30;99.90;;;;;;5093763;28;20192;-60
2021/06/08 04:03:42;;;;;;;29.60;22.92;;;16.50;99.90;;;;;;5093505;28;20678;-60
2021/06/08 04:06:10;;;;;;;29.42;23.60;;;16.50;99.90;;;;;;5093486;28;20261;-60
2021/06/08 04:08:37;;;;;;;31.23;23.92;;;16.60;99.90;;;;;;5093739;28;20200;-61
2021/06/08 04:11:05;;;;;;;30.95;23.27;;;16.60;99.90;;;;;;5093258;28;20242;-69
2021/06/08 04:13:32;;;;;;;28.80;22.77;;;16.60;99.90;;;;;;5087659;28;20293;-69
2021/06/08 04:16:02;;;;;;;28.33;22.38;;;16.70;99.90;;;;;;5073239;28;20212;-70
2021/06/08 04:18:31;;;;;;;30.92;22.75;;;16.70;99.90;;;;;;5072897;28;20660;-69
2021/06/08 04:21:00;;;;;;;26.90;22.38;;;16.70;99.90;;;;;;5073086;28;20254;-70
2021/06/08 04:23:29;;;;;;;27.73;22.23;;;16.70;99.90;;;;;;5072946;28;20201;-70
2021/06/08 04:25:58;;;;;;;26.75;22.25;;;16.70;99.90;;;;;;5072859;28;20207;-69
2021/06/08 04:28:28;;;;;;;28.17;21.70;;;16.80;99.90;;;;;;5073069;28;20200;-69
2021/06/08 04:30:56;;;;;;;28.90;22.92;;;16.80;99.90;;;;;;5072976;28;20212;-68
2021/06/08 04:33:26;;;;;;;30.17;23.88;;;16.80;99.90;;;;;;5073086;28;20200;-69
2021/06/08 04:35:54;;;;;;;27.77;22.95;;;16.80;99.90;;;;;;5072744;28;20200;-70
2021/06/08 04:38:23;;;;;;;30.48;22.85;;;16.80;99.90;;;;;;5072754;28;20203;-70
2021/06/08 04:40:52;;;;;;;28.33;22.27;;;16.80;99.90;;;;;;5072916;28;20201;-69
2021/06/08 04:43:24;;;;;;;31.05;22.85;;;16.80;99.90;;;;;;5072910;28;20250;-69
2021/06/08 04:45:52;;;;;;;27.85;22.27;;;16.80;99.90;;;;;;5072872;28;20565;-70
2021/06/08 04:48:21;;;;;;;31.38;23.52;;;16.80;99.90;;;;;;5072956;28;20203;-70
2021/06/08 04:50:50;;;;;;;29.48;22.73;;;16.90;99.90;;;;;;5072365;28;20706;-70
2021/06/08 04:53:17;;;;;;;30.63;22.90;;;16.90;99.90;;;;;;5072038;28;20231;-69
2021/06/08 04:55:46;;;;;;;26.95;21.70;;;16.90;99.90;;;;;;5072472;28;20211;-69
2021/06/08 04:58:13;;;;;;;27.98;22.48;;;16.80;99.90;;;;;;5072444;28;20284;-69
2021/06/08 05:00:48;;;;;;;27.90;22.15;;;16.90;99.90;;;;;;5072415;28;20197;-70
2021/06/08 05:03:20;;;;;;;32.90;23.80;;;17.00;99.90;;;;;;5072496;28;20257;-70
2021/06/08 05:05:52;;;;;;;31.02;24.15;;;17.10;99.90;;;;;;5071929;28;20741;-70
2021/06/08 05:08:23;;;;;;;31.65;24.33;;;17.10;99.90;;;;;;5072221;28;20633;-71
2021/06/08 05:11:05;;;;;;;32.13;25.15;;;17.10;99.90;;;;;;5072215;28;20256;-69
2021/06/08 05:13:35;;;;;;;32.53;24.27;;;17.10;99.90;;;;;;5078174;28;20253;-70
2021/06/08 05:16:05;;;;;;;31.73;24.40;;;17.10;99.90;;;;;;5092491;28;20196;-70
2021/06/08 05:18:33;;;;;;;33.03;25.67;;;17.10;99.90;;;;;;5092189;28;20227;-70
2021/06/08 05:21:02;;;;;;;31.88;25.67;;;17.20;99.90;;;;;;5092409;28;20234;-69
2021/06/08 05:23:30;;;;;;;30.75;24.75;;;17.30;99.90;;;;;;5092609;28;20283;-71
2021/06/08 05:25:59;;;;;;;30.55;25.40;;;17.40;99.90;;;;;;5092409;28;20200;-70
2021/06/08 05:28:27;;;;;;;33.50;27.00;;;17.70;99.90;;;;;;5092147;28;20203;-69
2021/06/08 05:30:56;;;;;;;31.13;26.25;;;17.90;99.90;;;;;;5092187;28;20251;-69
2021/06/08 05:33:24;;;;;;;40.70;31.98;;;18.10;99.90;;;;;;5076969;28;20193;-69
2021/06/08 05:35:54;;;;;;;36.72;26.25;;;18.20;99.90;;;;;;5072127;28;20317;-70
2021/06/08 05:38:29;;;;;;;41.45;30.40;;;18.30;99.90;;;;;;5072144;28;20196;-69
2021/06/08 05:41:02;;;;;;;36.65;29.13;;;18.50;99.90;;;;;;5072068;28;20191;-69
2021/06/08 05:43:29;;;;;;;35.13;27.60;;;18.60;99.90;;;;;;5072156;28;20192;-70
2021/06/08 05:45:57;;;;;;;32.67;26.98;;;18.50;99.90;;;;;;5073192;28;20204;-70
2021/06/08 05:48:26;;;;;;;36.10;28.75;;;18.40;99.90;;;;;;5073644;28;20232;-69
2021/06/08 05:50:54;;;;;;;35.38;27.58;;;18.30;99.90;;;;;;5076368;28;20223;-71
2021/06/08 05:53:22;;;;;;;39.58;29.98;;;18.30;99.90;;;;;;5075995;28;20232;-70
2021/06/08 05:55:51;;;;;;;42.33;32.00;;;18.30;99.90;;;;;;5075790;28;20211;-70
2021/06/08 05:58:24;;;;;;;35.53;29.02;;;18.30;99.90;;;;;;5075674;28;20201;-70
2021/06/08 06:00:53;;;;;;;36.92;30.00;;;18.40;99.90;;;;;;5075479;28;20185;-69
2021/06/08 06:03:21;;;;;;;36.88;29.75;;;18.50;99.90;;;;;;5075610;28;20372;-70
2021/06/08 06:05:49;;;;;;;36.97;30.00;;;18.50;99.90;;;;;;5074992;28;20551;-70
2021/06/08 06:08:17;;;;;;;35.85;28.90;;;18.50;99.90;;;;;;5075516;28;20201;-70
2021/06/08 06:10:45;;;;;;;36.58;29.45;;;18.70;99.90;;;;;;5075537;28;20594;-70
2021/06/08 06:13:14;;;;;;;35.92;28.67;;;18.80;99.90;;;;;;5078376;28;20200;-69
2021/06/08 06:15:46;;;;;;;37.22;30.02;;;18.90;99.90;;;;;;5095363;28;20719;-70
2021/06/08 06:18:14;;;;;;;36.38;30.55;;;18.90;99.90;;;;;;5095421;28;20187;-72
2021/06/08 06:20:42;;;;;;;35.83;29.95;;;19.00;99.90;;;;;;5081774;28;20204;-71
2021/06/08 06:23:10;;;;;;;35.70;30.67;;;19.10;99.90;;;;;;5092873;28;20295;-70
2021/06/08 06:25:38;;;;;;;40.65;30.83;;;19.10;99.90;;;;;;5092656;28;20200;-70
2021/06/08 06:28:05;;;;;;;35.22;29.65;;;19.10;99.90;;;;;;5092528;28;20317;-60
2021/06/08 06:30:33;;;;;;;37.55;29.55;;;19.10;99.90;;;;;;5082802;28;20303;-75
2021/06/08 06:33:02;;;;;;;35.67;28.63;;;18.90;99.90;;;;;;5071880;28;20204;-76
2021/06/08 06:35:30;;;;;;;35.50;29.45;;;18.90;99.90;;;;;;5071901;28;20649;-73
2021/06/08 06:37:58;;;;;;;38.58;30.88;;;18.80;99.90;;;;;;5071975;28;20196;-74
2021/06/08 06:40:29;;;;;;;37.97;31.92;;;18.80;99.90;;;;;;5071894;28;20299;-63
2021/06/08 06:43:02;;;;;;;34.97;29.85;;;18.90;99.90;;;;;;5071872;28;20226;-63
2021/06/08 06:45:32;;;;;;;38.05;31.98;;;19.10;99.90;;;;;;5071960;28;20193;-64
2021/06/08 06:48:02;;;;;;;36.22;30.70;;;19.30;99.90;;;;;;5071802;28;20223;-64
2021/06/08 06:50:32;;;;;;;36.03;31.98;;;19.40;99.90;;;;;;5071292;28;20527;-65
2021/06/08 06:53:00;;;;;;;33.95;29.17;;;19.50;99.90;;;;;;5070776;28;20232;-67
2021/06/08 06:55:29;;;;;;;35.08;28.67;;;19.70;99.90;;;;;;5071415;28;20211;-66
2021/06/08 06:57:57;;;;;;;37.50;31.08;;;19.70;99.90;;;;;;5071660;28;20222;-68
2021/06/08 07:00:26;;;;;;;35.53;31.25;;;20.00;99.90;;;;;;5071345;28;20291;-60
2021/06/08 07:02:56;;;;;;;34.65;30.40;;;20.20;99.90;;;;;;5071638;28;20203;-60
2021/06/08 07:05:26;;;;;;;35.88;30.35;;;20.20;99.90;;;;;;5071413;28;20310;-60
2021/06/08 07:07:55;;;;;;;38.47;33.47;;;20.30;99.90;;;;;;5071346;28;20725;-59
2021/06/08 07:10:25;;;;;;;34.65;30.13;;;20.40;99.90;;;;;;5070794;28;20665;-59
2021/06/08 07:12:54;;;;;;;41.60;34.70;;;20.30;99.90;;;;;;5071155;28;20679;-59
2021/06/08 07:15:26;;;;;;;43.42;36.42;;;20.40;99.90;;;;;;5091273;28;20698;-60
2021/06/08 07:17:54;;;;;;;41.60;34.72;;;20.40;99.90;;;;;;5091439;28;20279;-60
2021/06/08 07:20:24;;;;;;;39.20;34.75;;;20.40;99.90;;;;;;5090615;28;20718;-60
2021/06/08 07:22:52;;;;;;;41.03;35.15;;;20.40;99.90;;;;;;5091372;28;20207;-58
2021/06/08 07:25:22;;;;;;;38.63;32.88;;;20.30;99.90;;;;;;5091003;28;20685;-59
2021/06/08 07:27:50;;;;;;;37.22;31.45;;;20.10;99.90;;;;;;5090946;28;20208;-60
2021/06/08 07:30:19;;;;;;;34.63;30.73;;;20.00;99.90;;;;;;5091193;28;20542;-60
2021/06/08 07:32:59;;;;;;;36.15;31.00;;;19.90;99.90;;;;;;5090941;28;20232;-62
2021/06/08 07:35:37;;;;;;;32.35;27.75;;;19.90;99.90;;;;;;5090949;28;20180;-60
2021/06/08 07:38:08;;;;;;;33.50;28.85;;;19.90;99.90;;;;;;5090810;28;20191;-60
2021/06/08 07:40:41;;;;;;;30.58;27.35;;;20.20;99.90;;;;;;5090832;28;20188;-61
2021/06/08 07:43:12;;;;;;;33.08;29.52;;;20.30;99.90;;;;;;5090908;28;20195;-60
2021/06/08 07:45:43;;;;;;;32.47;28.98;;;20.50;99.90;;;;;;5090594;28;20184;-60
2021/06/08 07:48:16;;;;;;;31.65;28.27;;;20.70;99.90;;;;;;5090853;28;20188;-60
2021/06/08 07:50:45;;;;;;;32.85;28.92;;;20.80;99.90;;;;;;5090429;28;20184;-60
2021/06/08 07:53:13;;;;;;;33.63;30.02;;;20.90;99.90;;;;;;5090517;28;20342;-61
2021/06/08 07:55:43;;;;;;;29.48;26.08;;;21.00;99.90;;;;;;5090353;28;20199;-59
2021/06/08 07:58:11;;;;;;;33.05;29.45;;;21.10;99.90;;;;;;5090458;28;20185;-60
2021/06/08 08:00:39;;;;;;;32.88;29.27;;;21.10;99.90;;;;;;5090570;28;20200;-61
2021/06/08 08:06:01;;;;;;;31.52;28.13;;;21.70;99.90;;;;;;5069941;28;20215;-60
2021/06/08 08:08:30;;;;;;;32.10;28.70;;;21.90;99.90;;;;;;5090259;28;20671;-60
2021/06/08 08:11:01;;;;;;;32.08;28.50;;;22.10;99.90;;;;;;5089546;28;20231;-61
2021/06/08 08:13:29;;;;;;;32.20;28.70;;;22.20;99.90;;;;;;5085144;28;20204;-59
2021/06/08 08:16:03;;;;;;;30.90;26.55;;;22.20;99.90;;;;;;5070306;28;20189;-61
2021/06/08 08:18:33;;;;;;;29.13;25.08;;;22.20;99.90;;;;;;5069575;28;20189;-60
2021/06/08 08:21:00;;;;;;;32.10;28.80;;;22.40;99.90;;;;;;5069676;28;20269;-60
2021/06/08 08:23:30;;;;;;;31.50;28.10;;;22.60;99.90;;;;;;5069888;28;20231;-60
2021/06/08 08:26:00;;;;;;;30.85;27.75;;;22.50;99.90;;;;;;5070037;28;20200;-62
2021/06/08 08:28:27;;;;;;;29.45;26.50;;;22.50;99.90;;;;;;5069497;28;20284;-61
2021/06/08 08:30:59;;;;;;;30.25;26.90;;;22.60;99.90;;;;;;5069410;28;20235;-61
2021/06/08 08:33:28;;;;;;;29.70;26.65;;;22.70;99.90;;;;;;5069646;28;20706;-60
2021/06/08 08:35:56;;;;;;;30.40;27.25;;;22.80;99.90;;;;;;5069526;28;20200;-60
2021/06/08 08:38:24;;;;;;;30.23;25.92;;;23.10;99.90;;;;;;5069920;28;20604;-61
2021/06/08 08:40:52;;;;;;;30.40;27.27;;;23.50;99.90;;;;;;5069569;28;20209;-60
2021/06/08 08:43:40;;;;;;;27.65;24.85;;;23.70;99.90;;;;;;5069525;28;20257;-61
2021/06/08 08:46:08;;;;;;;27.35;24.52;;;23.50;99.90;;;;;;5062701;28;20239;-61
2021/06/08 08:48:36;;;;;;;29.23;26.20;;;23.80;99.90;;;;;;5052638;28;20209;-60
2021/06/08 08:51:04;;;;;;;24.13;21.73;;;24.00;99.90;;;;;;5069042;28;20212;-59
2021/06/08 08:53:32;;;;;;;29.73;26.73;;;24.30;99.90;;;;;;5064732;28;20201;-60
2021/06/08 08:56:25;;;;;;;30.00;26.88;;;24.40;99.90;;;;;;5049390;28;20197;-60
2021/06/08 08:58:54;;;;;;;26.73;23.92;;;24.20;99.90;;;;;;5049417;28;20287;-59
2021/06/08 09:01:21;;;;;;;27.33;24.65;;;24.00;99.90;;;;;;5049364;28;20200;-59
2021/06/08 09:03:49;;;;;;;31.77;28.30;;;23.90;99.90;;;;;;5049540;28;20205;-59
2021/06/08 09:06:17;;;;;;;28.10;25.20;;;23.60;99.90;;;;;;5049386;28;20293;-61
2021/06/08 09:08:44;;;;;;;27.63;24.90;;;23.60;99.90;;;;;;5049526;28;20201;-59
2021/06/08 09:11:12;;;;;;;28.15;25.20;;;23.30;99.90;;;;;;5049227;28;20288;-60
2021/06/08 09:13:41;;;;;;;30.38;27.17;;;23.30;99.90;;;;;;5062264;28;20202;-59
2021/06/08 09:16:11;;;;;;;26.48;23.88;;;23.10;99.90;;;;;;5089723;28;20199;-61
2021/06/08 09:18:39;;;;;;;28.25;25.05;;;22.80;99.90;;;;;;5089503;28;20184;-59
2021/06/08 09:21:15;;;;;;;28.45;25.63;;;22.60;99.90;;;;;;5089250;28;20196;-60
2021/06/08 09:23:42;;;;;;;30.25;26.58;;;22.60;99.90;;;;;;5092128;28;20207;-60
2021/06/08 09:26:10;;;;;;;27.83;25.02;;;22.70;99.90;;;;;;5078582;28;20193;-60
2021/06/08 09:28:38;;;;;;;27.90;25.15;;;22.70;99.90;;;;;;5072866;28;20210;-59
2021/06/08 09:31:12;;;;;;;27.85;24.98;;;22.60;99.90;;;;;;5072404;28;20681;-61
2021/06/08 09:33:42;;;;;;;26.85;24.02;;;22.50;99.90;;;;;;5072838;28;20184;-59
2021/06/08 09:36:12;;;;;;;27.80;24.98;;;22.50;99.90;;;;;;5072696;28;20201;-59
2021/06/08 09:38:45;;;;;;;28.27;25.27;;;22.40;99.90;;;;;;5072766;28;20570;-60
2021/06/08 09:41:22;;;;;;;30.98;27.75;;;22.20;99.90;;;;;;5072653;28;20201;-61
2021/06/08 09:44:01;;;;;;;30.50;27.48;;;22.00;99.90;;;;;;5072913;28;20199;-66
2021/06/08 09:46:33;;;;;;;33.53;29.27;;;21.80;99.90;;;;;;5072484;28;20240;-66
2021/06/08 09:49:02;;;;;;;28.13;25.27;;;21.70;99.90;;;;;;5073049;28;20195;-68
2021/06/08 09:51:47;;;;;;;28.63;25.70;;;21.60;99.90;;;;;;5072478;28;20228;-67
2021/06/08 09:54:32;;;;;;;29.48;26.35;;;21.70;99.90;;;;;;5072831;28;20280;-64
2021/06/08 09:57:13;;;;;;;30.60;27.40;;;22.00;99.90;;;;;;5072402;28;20799;-65
2021/06/08 09:59:45;;;;;;;27.63;24.73;;;22.10;99.90;;;;;;5072343;28;20255;-66
2021/06/08 10:02:35;;;;;;;28.77;25.77;;;22.00;99.90;;;;;;5072852;28;20177;-68
2021/06/08 10:05:17;;;;;;;28.15;25.05;;;22.10;99.90;;;;;;5071742;28;20655;-70
2021/06/08 10:07:45;;;;;;;26.35;23.63;;;22.10;99.90;;;;;;5071751;28;20205;-60
2021/06/08 10:10:14;;;;;;;25.60;21.55;;;22.30;99.90;;;;;;5072175;28;20243;-60
2021/06/08 10:13:03;;;;;;;24.90;22.40;;;22.40;99.90;;;;;;5072344;28;20307;-59
2021/06/08 10:15:33;;;;;;;26.52;23.83;;;22.50;99.90;;;;;;5052060;28;20599;-60
2021/06/08 10:18:05;;;;;;;29.35;25.35;;;22.60;99.90;;;;;;5051775;28;20300;-59
2021/06/08 10:20:35;;;;;;;27.48;24.67;;;22.50;99.90;;;;;;5067036;28;20200;-61
2021/06/08 10:23:20;;;;;;;25.95;23.33;;;22.50;99.90;;;;;;5074865;28;20213;-61
2021/06/08 10:25:49;;;;;;;28.88;25.88;;;22.50;99.90;;;;;;5075173;28;20181;-62
2021/06/08 10:28:17;;;;;;;31.02;27.20;;;22.50;99.90;;;;;;5075016;28;20236;-61
2021/06/08 10:30:45;;;;;;;30.83;27.63;;;22.70;99.90;;;;;;5075968;28;20288;-61
2021/06/08 10:33:34;;;;;;;27.42;24.52;;;22.80;99.90;;;;;;5075963;28;20228;-61
2021/06/08 10:36:11;;;;;;;28.58;25.63;;;22.80;99.90;;;;;;5075081;28;20220;-62
2021/06/08 10:38:39;;;;;;;28.58;25.60;;;22.90;99.90;;;;;;5075009;28;20551;-61
2021/06/08 10:41:07;;;;;;;27.33;24.60;;;22.90;99.90;;;;;;5075145;28;20227;-60
2021/06/08 10:43:37;;;;;;;25.80;23.20;;;23.00;99.90;;;;;;5074861;28;20196;-60
2021/06/08 10:46:04;;;;;;;26.73;24.05;;;23.00;99.90;;;;;;5074914;28;20303;-61
2021/06/08 10:48:38;;;;;;;29.50;26.30;;;23.10;99.90;;;;;;5074688;28;20664;-60
2021/06/08 10:51:09;;;;;;;26.90;24.27;;;23.10;99.90;;;;;;5074121;28;20185;-63
2021/06/08 10:53:40;;;;;;;25.27;22.58;;;23.10;99.90;;;;;;5074667;28;20303;-61
2021/06/08 10:56:29;;;;;;;28.48;25.58;;;23.20;99.90;;;;;;5074719;28;20219;-61
2021/06/08 10:58:58;;;;;;;27.98;25.08;;;23.30;99.90;;;;;;5074599;28;20185;-61
2021/06/08 11:01:45;;;;;;;27.70;24.92;;;23.30;99.90;;;;;;5069065;28;20197;-60
2021/06/08 11:04:20;;;;;;;28.02;25.15;;;23.20;99.90;;;;;;5067476;28;20295;-60
2021/06/08 11:06:51;;;;;;;26.95;24.10;;;23.10;99.90;;;;;;5074289;28;20275;-60
2021/06/08 11:09:31;;;;;;;25.60;22.90;;;23.10;99.90;;;;;;5074563;28;20205;-60
2021/06/08 11:12:01;;;;;;;25.90;23.15;;;23.20;99.90;;;;;;5074338;28;20603;-61
2021/06/08 11:14:48;;;;;;;24.48;21.92;;;23.40;99.90;;;;;;5087867;28;20253;-60
2021/06/08 11:17:39;;;;;;;25.83;23.13;;;23.70;99.90;;;;;;5091715;28;20547;-61
2021/06/08 11:20:18;;;;;;;26.40;23.75;;;23.90;99.90;;;;;;5085742;28;20192;-60
2021/06/08 11:22:54;;;;;;;26.60;23.90;;;23.90;99.90;;;;;;5091275;28;20637;-59
2021/06/08 11:25:31;;;;;;;26.15;23.45;;;24.10;99.90;;;;;;5091302;28;20620;-60
2021/06/08 11:28:00;;;;;;;20.98;18.98;;;24.20;99.90;;;;;;5091737;28;20187;-59
2021/06/08 11:30:29;;;;;;;21.63;19.50;;;24.40;99.90;;;;;;5091082;28;20208;-59
2021/06/08 11:32:57;;;;;;;19.75;17.70;;;24.60;99.90;;;;;;5091354;28;20231;-60
2021/06/08 11:35:33;;;;;;;19.70;17.77;;;24.90;99.90;;;;;;5091228;28;20207;-60
2021/06/08 11:38:07;;;;;;;23.38;21.00;;;25.20;99.90;;;;;;5091378;28;20198;-62
2021/06/08 11:40:59;;;;;;;23.55;21.25;;;25.20;99.90;;;;;;5091037;28;20188;-61
2021/06/08 11:43:52;;;;;;;19.08;17.25;;;25.20;99.90;;;;;;5091728;28;20271;-60
2021/06/08 11:46:28;;;;;;;18.85;16.95;;;25.00;99.90;;;;;;5086886;28;20200;-60
2021/06/08 11:49:07;;;;;;;22.23;19.95;;;25.00;99.90;;;;;;5091054;28;20187;-59
2021/06/08 11:51:46;;;;;;;26.33;23.67;;;25.00;99.90;;;;;;5090664;28;20267;-60
2021/06/08 11:54:17;;;;;;;25.38;22.77;;;24.90;99.90;;;;;;5090504;28;20259;-59
2021/06/08 11:56:53;;;;;;;28.42;25.33;;;24.80;99.90;;;;;;5090871;28;20198;-60
2021/06/08 11:59:26;;;;;;;24.83;22.42;;;24.40;99.90;;;;;;5090691;28;20176;-60
2021/06/08 12:01:56;;;;;;;23.77;21.48;;;24.40;99.90;;;;;;5090754;28;20198;-58
2021/06/08 12:04:27;;;;;;;24.88;22.38;;;24.50;99.90;;;;;;5090745;28;20192;-61
2021/06/08 12:07:07;;;;;;;24.67;22.27;;;24.50;99.90;;;;;;5090260;28;20763;-59
2021/06/08 12:09:38;;;;;;;24.05;21.75;;;24.30;99.90;;;;;;5090624;28;20188;-60
2021/06/08 12:12:10;;;;;;;27.25;24.55;;;24.20;99.90;;;;;;5090205;28;20191;-59
2021/06/08 12:14:53;;;;;;;23.90;21.38;;;24.00;99.90;;;;;;5075252;28;20668;-60
2021/06/08 12:17:21;;;;;;;24.33;21.83;;;24.10;99.90;;;;;;5069626;28;20193;-61
2021/06/08 12:19:58;;;;;;;24.05;21.58;;;24.20;99.90;;;;;;5069912;28;20208;-61
2021/06/08 12:22:29;;;;;;;25.00;22.40;;;24.30;99.90;;;;;;5069881;28;20177;-62
2021/06/08 12:24:59;;;;;;;22.10;19.92;;;24.30;99.90;;;;;;5069811;28;20189;-67
2021/06/08 12:27:38;;;;;;;20.55;18.45;;;24.30;99.90;;;;;;5069999;28;20299;-66
2021/06/08 12:30:09;;;;;;;19.33;17.42;;;24.30;99.90;;;;;;5069252;28;20655;-66
2021/06/08 12:32:38;;;;;;;16.42;14.85;;;24.40;99.90;;;;;;5069417;28;20208;-61
2021/06/08 12:35:19;;;;;;;17.02;15.45;;;24.40;99.90;;;;;;5069710;28;20200;-62
2021/06/08 12:37:48;;;;;;;15.07;13.77;;;24.40;99.90;;;;;;5069830;28;20264;-62
2021/06/08 12:40:16;;;;;;;15.13;13.73;;;24.40;99.90;;;;;;5069874;28;20234;-67
2021/06/08 12:42:44;;;;;;;15.38;14.05;;;24.50;99.90;;;;;;5069681;28;20196;-66
2021/06/08 12:45:13;;;;;;;17.42;15.48;;;24.60;99.90;;;;;;5069740;28;20216;-69
2021/06/08 12:47:40;;;;;;;16.00;14.52;;;24.60;99.90;;;;;;5069526;28;20292;-68
2021/06/08 12:50:11;;;;;;;14.77;13.32;;;24.50;99.90;;;;;;5069358;28;20197;-64